createdAt,value
2022-11-25T00:00:48.937Z,96574.13
2022-11-25T00:01:51.794Z,96581.81
2022-11-25T00:02:53.508Z,96584.19
2022-11-25T00:03:57.087Z,96586.53
2022-11-25T00:04:58.694Z,96586.53
2022-11-25T00:06:10.359Z,96586.72
2022-11-25T00:07:11.953Z,96590.94
2022-11-25T00:08:13.596Z,96581.81
2022-11-25T00:09:15.103Z,96590.75
2022-11-25T00:10:16.745Z,96588.09
2022-11-25T00:11:18.695Z,96593.44
2022-11-25T00:12:20.242Z,96593.44
2022-11-25T00:13:21.741Z,96587.88
2022-11-25T00:14:23.296Z,96586.16
2022-11-25T00:15:24.887Z,96587.56
2022-11-25T00:16:26.823Z,96591.34
2022-11-25T00:17:28.404Z,96586.78
2022-11-25T00:18:30.921Z,96595.41
2022-11-25T00:19:33.571Z,96595.53
2022-11-25T00:20:37.420Z,96597.88
2022-11-25T00:21:39.233Z,96594.13
2022-11-25T00:22:40.832Z,96596.00
2022-11-25T00:23:42.555Z,96597.75
2022-11-25T00:24:44.065Z,96603.72
2022-11-25T00:25:45.614Z,96597.09
2022-11-25T00:26:47.233Z,96598.00
2022-11-25T00:27:52.893Z,96595.53
2022-11-25T00:28:57.680Z,96602.44
2022-11-25T00:29:59.186Z,96593.31
2022-11-25T00:31:16.163Z,96603.41
2022-11-25T00:32:17.965Z,96599.97
2022-11-25T00:33:19.491Z,96597.75
2022-11-25T00:34:21.018Z,96590.00
2022-11-25T00:35:22.554Z,96598.28
2022-11-25T00:36:28.010Z,96595.16
2022-11-25T00:37:29.541Z,96597.81
2022-11-25T00:38:31.135Z,96591.38
2022-11-25T00:39:32.712Z,96592.94
2022-11-25T00:40:34.271Z,96594.91
2022-11-25T00:41:54.226Z,96596.97
2022-11-25T00:43:13.941Z,96595.53
2022-11-25T00:44:39.389Z,96592.53
2022-11-25T00:45:41.328Z,96592.03
2022-11-25T00:46:43.200Z,96590.38
2022-11-25T00:47:44.734Z,96594.44
2022-11-25T00:48:46.253Z,96592.09
2022-11-25T00:49:50.070Z,96587.19
2022-11-25T00:50:51.603Z,96587.19
2022-11-25T00:51:53.719Z,96591.75
2022-11-25T00:52:55.304Z,96590.97
2022-11-25T00:53:59.051Z,96592.66
2022-11-25T00:55:00.756Z,96592.94
2022-11-25T00:56:14.431Z,96595.09
2022-11-25T00:57:17.724Z,96592.41
2022-11-25T00:58:19.312Z,96599.06
2022-11-25T00:59:20.883Z,96596.88
2022-11-25T01:00:22.535Z,96592.28
2022-11-25T01:01:25.099Z,96596.88
2022-11-25T01:02:26.866Z,96595.72
2022-11-25T01:03:28.435Z,96599.34
2022-11-25T01:04:30.145Z,96597.78
2022-11-25T01:05:32.598Z,96592.22
2022-11-25T01:06:34.894Z,96594.13
2022-11-25T01:07:36.448Z,96589.66
2022-11-25T01:08:38.908Z,96591.81
2022-11-25T01:09:40.509Z,96598.75
2022-11-25T01:10:42.071Z,96595.88
2022-11-25T01:11:43.888Z,96589.63
2022-11-25T01:12:47.705Z,96593.22
2022-11-25T01:13:50.372Z,96589.13
2022-11-25T01:14:51.912Z,96590.53
2022-11-25T01:15:53.508Z,96596.56
2022-11-25T01:16:55.276Z,96596.56
2022-11-25T01:17:56.816Z,96594.00
2022-11-25T01:19:00.257Z,96594.13
2022-11-25T01:20:03.723Z,96592.09
2022-11-25T01:21:12.712Z,96594.47
2022-11-25T01:22:14.277Z,96591.00
2022-11-25T01:23:15.841Z,96588.44
2022-11-25T01:24:17.818Z,96594.78
2022-11-25T01:25:19.563Z,96592.78
2022-11-25T01:26:24.880Z,96592.09
2022-11-25T01:27:26.390Z,96593.69
2022-11-25T01:28:27.952Z,96593.78
2022-11-25T01:29:29.464Z,96587.00
2022-11-25T01:30:31.118Z,96592.47
2022-11-25T01:31:36.055Z,96591.69
2022-11-25T01:32:37.668Z,96592.16
2022-11-25T01:33:39.261Z,96588.91
2022-11-25T01:34:40.785Z,96591.06
2022-11-25T01:35:42.330Z,96590.75
2022-11-25T01:36:43.916Z,96591.38
2022-11-25T01:37:45.524Z,96595.97
2022-11-25T01:38:51.954Z,96592.16
2022-11-25T01:39:53.512Z,96588.38
2022-11-25T01:40:55.095Z,96591.06
2022-11-25T01:41:56.704Z,96590.28
2022-11-25T01:42:58.307Z,96596.88
2022-11-25T01:44:19.220Z,96588.97
2022-11-25T01:45:27.912Z,96588.63
2022-11-25T01:46:41.825Z,96586.41
2022-11-25T01:47:44.717Z,96591.75
2022-11-25T01:49:00.210Z,96581.81
2022-11-25T01:50:09.782Z,96589.53
2022-11-25T01:51:29.795Z,96591.75
2022-11-25T01:52:35.661Z,96591.63
2022-11-25T01:53:37.213Z,96591.97
2022-11-25T01:54:46.444Z,96590.44
2022-11-25T01:55:56.988Z,96588.75
2022-11-25T01:57:03.936Z,96591.75
2022-11-25T01:58:20.657Z,96585.50
2022-11-25T01:59:22.689Z,96591.53
2022-11-25T02:00:25.538Z,96591.53
2022-11-25T02:01:27.155Z,96589.97
2022-11-25T02:02:29.944Z,96581.25
2022-11-25T02:03:37.096Z,96583.13
2022-11-25T02:04:40.640Z,96584.34
2022-11-25T02:06:03.514Z,96576.13
2022-11-25T02:07:15.013Z,96580.16
2022-11-25T02:08:17.830Z,96580.59
2022-11-25T02:09:21.612Z,96576.16
2022-11-25T02:10:27.449Z,96581.59
2022-11-25T02:11:30.915Z,96586.44
2022-11-25T02:12:35.636Z,96580.28
2022-11-25T02:13:38.073Z,96585.97
2022-11-25T02:14:39.821Z,96579.50
2022-11-25T02:15:41.416Z,96577.38
2022-11-25T02:16:43.097Z,96584.84
2022-11-25T02:17:45.534Z,96576.38
2022-11-25T02:18:47.085Z,96593.75
2022-11-25T02:20:07.238Z,96584.34
2022-11-25T02:21:09.240Z,96594.16
2022-11-25T02:22:21.462Z,96589.22
2022-11-25T02:23:46.268Z,96584.66
2022-11-25T02:24:54.200Z,96584.53
2022-11-25T02:25:55.912Z,96591.72
2022-11-25T02:26:58.279Z,96583.00
2022-11-25T02:28:10.472Z,96586.22
2022-11-25T02:29:12.369Z,96586.28
2022-11-25T02:30:14.157Z,96579.69
2022-11-25T02:31:23.185Z,96582.16
2022-11-25T02:32:24.761Z,96583.94
2022-11-25T02:33:27.420Z,96586.19
2022-11-25T02:34:28.959Z,96583.03
2022-11-25T02:35:42.247Z,96586.53
2022-11-25T02:36:43.871Z,96583.88
2022-11-25T02:37:45.490Z,96583.88
2022-11-25T02:38:54.925Z,96587.19
2022-11-25T02:39:56.546Z,96584.72
2022-11-25T02:41:21.192Z,96587.09
2022-11-25T02:42:24.286Z,96586.50
2022-11-25T02:43:27.200Z,96588.44
2022-11-25T02:44:29.016Z,96586.56
2022-11-25T02:45:42.092Z,96583.94
2022-11-25T02:46:43.748Z,96586.16
2022-11-25T02:47:45.419Z,96589.03
2022-11-25T02:49:07.992Z,96582.91
2022-11-25T02:50:09.134Z,96584.00
2022-11-25T02:51:13.418Z,96585.22
2022-11-25T02:52:15.018Z,96582.09
2022-11-25T02:53:16.891Z,96583.81
2022-11-25T02:54:18.482Z,96584.78
2022-11-25T02:55:20.037Z,96589.94
2022-11-25T02:56:23.621Z,96593.59
2022-11-25T02:57:25.170Z,96594.38
2022-11-25T02:58:27.543Z,96595.91
2022-11-25T02:59:29.116Z,96587.63
2022-11-25T03:00:30.652Z,96596.16
2022-11-25T03:01:32.865Z,96596.03
2022-11-25T03:02:34.694Z,96596.63
2022-11-25T03:03:37.190Z,96600.56
2022-11-25T03:04:38.975Z,96597.59
2022-11-25T03:05:40.676Z,96597.88
2022-11-25T03:06:42.226Z,96596.63
2022-11-25T03:07:43.768Z,96600.28
2022-11-25T03:08:45.444Z,96604.69
2022-11-25T03:09:46.947Z,96591.66
2022-11-25T03:10:48.670Z,96593.22
2022-11-25T03:12:08.887Z,96599.47
2022-11-25T03:13:10.886Z,96604.56
2022-11-25T03:14:12.652Z,96597.00
2022-11-25T03:15:14.586Z,96600.94
2022-11-25T03:16:16.220Z,96602.34
2022-11-25T03:17:17.789Z,96596.50
2022-11-25T03:18:19.375Z,96603.28
2022-11-25T03:19:20.926Z,96610.16
2022-11-25T03:20:22.810Z,96605.47
2022-11-25T03:21:24.387Z,96608.94
2022-11-25T03:22:26.408Z,96616.16
2022-11-25T03:23:28.041Z,96604.81
2022-11-25T03:24:29.625Z,96600.28
2022-11-25T03:25:31.407Z,96604.03
2022-11-25T03:26:33.018Z,96607.66
2022-11-25T03:27:35.472Z,96609.97
2022-11-25T03:28:36.969Z,96605.09
2022-11-25T03:29:38.531Z,96604.19
2022-11-25T03:30:41.131Z,96605.59
2022-11-25T03:31:42.700Z,96607.19
2022-11-25T03:32:44.715Z,96610.81
2022-11-25T03:33:46.286Z,96615.88
2022-11-25T03:34:47.876Z,96612.59
2022-11-25T03:35:49.448Z,96615.88
2022-11-25T03:36:51.183Z,96613.69
2022-11-25T03:37:52.779Z,96617.56
2022-11-25T03:38:54.339Z,96622.72
2022-11-25T03:39:56.074Z,96621.50
2022-11-25T03:40:57.622Z,96614.31
2022-11-25T03:41:59.132Z,96619.81
2022-11-25T03:43:00.737Z,96617.75
2022-11-25T03:44:02.640Z,96622.78
2022-11-25T03:45:05.112Z,96618.09
2022-11-25T03:46:06.708Z,96616.53
2022-11-25T03:47:08.308Z,96619.63
2022-11-25T03:48:09.977Z,96618.53
2022-11-25T03:49:11.592Z,96622.78
2022-11-25T03:50:14.546Z,96621.22
2022-11-25T03:51:16.079Z,96618.09
2022-11-25T03:52:17.639Z,96628.13
2022-11-25T03:53:19.194Z,96626.38
2022-11-25T03:54:20.707Z,96631.22
2022-11-25T03:55:22.251Z,96636.25
2022-11-25T03:56:23.999Z,96634.81
2022-11-25T03:57:25.545Z,96631.19
2022-11-25T03:58:27.100Z,96639.03
2022-11-25T03:59:28.625Z,96644.19
2022-11-25T04:00:31.078Z,96644.66
2022-11-25T04:01:32.711Z,96640.38
2022-11-25T04:02:34.318Z,96645.88
2022-11-25T04:03:35.822Z,96648.06
2022-11-25T04:04:37.953Z,96640.03
2022-11-25T04:05:39.757Z,96648.34
2022-11-25T04:06:41.384Z,96645.19
2022-11-25T04:07:42.990Z,96646.13
2022-11-25T04:08:44.563Z,96644.22
2022-11-25T04:09:46.356Z,96649.25
2022-11-25T04:10:50.164Z,96654.41
2022-11-25T04:12:10.962Z,96650.66
2022-11-25T04:13:12.537Z,96657.75
2022-11-25T04:14:14.227Z,96654.47
2022-11-25T04:15:17.294Z,96659.81
2022-11-25T04:16:24.606Z,96658.91
2022-11-25T04:17:26.203Z,96661.91
2022-11-25T04:18:27.886Z,96655.75
2022-11-25T04:19:29.444Z,96664.75
2022-11-25T04:20:30.954Z,96664.75
2022-11-25T04:21:32.562Z,96666.63
2022-11-25T04:22:34.118Z,96665.38
2022-11-25T04:23:35.676Z,96661.91
2022-11-25T04:24:37.433Z,96671.06
2022-11-25T04:25:39.300Z,96669.81
2022-11-25T04:26:40.867Z,96675.81
2022-11-25T04:27:42.540Z,96677.22
2022-11-25T04:28:44.129Z,96681.63
2022-11-25T04:29:45.735Z,96678.97
2022-11-25T04:30:47.431Z,96686.97
2022-11-25T04:31:49.056Z,96688.56
2022-11-25T04:32:50.634Z,96684.63
2022-11-25T04:33:52.840Z,96691.84
2022-11-25T04:34:54.541Z,96695.94
2022-11-25T04:35:56.130Z,96698.13
2022-11-25T04:36:57.682Z,96695.00
2022-11-25T04:37:59.302Z,96692.00
2022-11-25T04:39:00.817Z,96692.34
2022-11-25T04:40:02.386Z,96694.22
2022-11-25T04:41:04.021Z,96702.88
2022-11-25T04:42:24.475Z,96696.72
2022-11-25T04:43:26.009Z,96697.69
2022-11-25T04:44:27.565Z,96703.81
2022-11-25T04:45:40.680Z,96703.66
2022-11-25T04:46:50.791Z,96701.44
2022-11-25T04:47:52.708Z,96700.66
2022-11-25T04:48:54.225Z,96698.59
2022-11-25T04:49:56.609Z,96708.34
2022-11-25T04:50:58.619Z,96708.50
2022-11-25T04:52:00.224Z,96710.72
2022-11-25T04:53:01.777Z,96712.75
2022-11-25T04:54:03.596Z,96708.38
2022-11-25T04:55:05.646Z,96708.81
2022-11-25T04:56:07.921Z,96717.31
2022-11-25T04:57:14.729Z,96715.13
2022-11-25T04:58:40.080Z,96721.06
2022-11-25T04:59:45.743Z,96717.63
2022-11-25T05:00:47.326Z,96723.44
2022-11-25T05:01:48.979Z,96729.59
2022-11-25T05:02:50.570Z,96725.81
2022-11-25T05:03:57.335Z,96722.31
2022-11-25T05:04:59.288Z,96728.59
2022-11-25T05:06:06.053Z,96732.84
2022-11-25T05:07:07.770Z,96729.25
2022-11-25T05:08:09.271Z,96732.09
2022-11-25T05:09:11.486Z,96732.88
2022-11-25T05:10:13.659Z,96742.78
2022-11-25T05:11:15.391Z,96743.56
2022-11-25T05:12:20.091Z,96742.28
2022-11-25T05:13:21.921Z,96748.56
2022-11-25T05:14:25.371Z,96754.69
2022-11-25T05:15:26.957Z,96754.22
2022-11-25T05:16:28.599Z,96759.13
2022-11-25T05:17:32.012Z,96767.44
2022-11-25T05:18:33.649Z,96763.97
2022-11-25T05:19:36.553Z,96764.94
2022-11-25T05:20:38.169Z,96770.09
2022-11-25T05:21:39.696Z,96774.19
2022-11-25T05:22:41.310Z,96768.22
2022-11-25T05:23:42.847Z,96778.59
2022-11-25T05:24:44.500Z,96772.47
2022-11-25T05:25:46.144Z,96769.31
2022-11-25T05:26:47.813Z,96774.66
2022-11-25T05:27:49.405Z,96776.69
2022-11-25T05:28:50.933Z,96775.09
2022-11-25T05:29:55.970Z,96787.38
2022-11-25T05:30:58.569Z,96772.91
2022-11-25T05:32:00.443Z,96779.66
2022-11-25T05:33:02.212Z,96783.59
2022-11-25T05:34:04.172Z,96778.22
2022-11-25T05:35:05.965Z,96787.50
2022-11-25T05:36:07.837Z,96793.28
2022-11-25T05:37:12.527Z,96798.19
2022-11-25T05:38:14.188Z,96795.66
2022-11-25T05:39:15.800Z,96801.13
2022-11-25T05:40:17.429Z,96797.34
2022-11-25T05:41:18.975Z,96806.47
2022-11-25T05:42:20.947Z,96803.06
2022-11-25T05:43:22.512Z,96805.44
2022-11-25T05:44:24.304Z,96811.25
2022-11-25T05:45:25.864Z,96811.72
2022-11-25T05:46:27.564Z,96817.50
2022-11-25T05:47:29.300Z,96820.97
2022-11-25T05:48:30.825Z,96820.34
2022-11-25T05:49:32.812Z,96817.06
2022-11-25T05:50:34.364Z,96826.81
2022-11-25T05:51:35.886Z,96820.56
2022-11-25T05:52:37.396Z,96831.25
2022-11-25T05:53:38.987Z,96836.59
2022-11-25T05:54:40.561Z,96835.78
2022-11-25T05:55:42.079Z,96834.41
2022-11-25T05:56:43.767Z,96832.97
2022-11-25T05:57:45.417Z,96825.88
2022-11-25T05:58:47.382Z,96829.03
2022-11-25T05:59:48.933Z,96836.09
2022-11-25T06:00:50.985Z,96832.50
2022-11-25T06:01:55.649Z,96836.72
2022-11-25T06:02:57.437Z,96835.63
2022-11-25T06:04:03.434Z,96837.38
2022-11-25T06:05:05.389Z,96840.19
2022-11-25T06:06:08.018Z,96841.28
2022-11-25T06:07:09.602Z,96843.00
2022-11-25T06:08:11.409Z,96842.84
2022-11-25T06:09:13.028Z,96844.13
2022-11-25T06:10:14.683Z,96844.91
2022-11-25T06:11:17.654Z,96851.22
2022-11-25T06:12:21.845Z,96852.75
2022-11-25T06:13:23.563Z,96847.41
2022-11-25T06:14:25.122Z,96853.22
2022-11-25T06:15:26.624Z,96854.81
2022-11-25T06:16:28.653Z,96852.75
2022-11-25T06:17:30.735Z,96847.41
2022-11-25T06:18:32.254Z,96856.03
2022-11-25T06:19:33.869Z,96854.16
2022-11-25T06:20:35.645Z,96848.66
2022-11-25T06:21:37.410Z,96844.41
2022-11-25T06:22:39.160Z,96847.22
2022-11-25T06:23:41.096Z,96843.91
2022-11-25T06:24:42.726Z,96849.25
2022-11-25T06:25:44.276Z,96853.81
2022-11-25T06:26:45.927Z,96847.69
2022-11-25T06:28:11.377Z,96851.59
2022-11-25T06:29:09.018Z,96857.25
2022-11-25T06:30:12.881Z,96854.31
2022-11-25T06:31:20.410Z,96851.16
2022-11-25T06:32:22.045Z,96846.75
2022-11-25T06:33:23.620Z,96853.03
2022-11-25T06:34:25.349Z,96855.56
2022-11-25T06:35:26.948Z,96848.97
2022-11-25T06:36:28.529Z,96852.69
2022-11-25T06:37:30.083Z,96855.53
2022-11-25T06:38:32.058Z,96847.03
2022-11-25T06:39:33.610Z,96849.25
2022-11-25T06:40:35.150Z,96852.38
2022-11-25T06:41:36.705Z,96855.72
2022-11-25T06:42:39.460Z,96856.34
2022-11-25T06:43:41.491Z,96854.31
2022-11-25T06:44:43.107Z,96852.59
2022-11-25T06:45:44.818Z,96857.75
2022-11-25T06:46:46.471Z,96863.28
2022-11-25T06:47:48.380Z,96862.19
2022-11-25T06:48:49.920Z,96862.03
2022-11-25T06:49:51.521Z,96864.88
2022-11-25T06:50:58.043Z,96867.06
2022-11-25T06:51:59.705Z,96866.28
2022-11-25T06:53:02.493Z,96866.28
2022-11-25T06:54:04.262Z,96863.16
2022-11-25T06:55:06.252Z,96864.72
2022-11-25T06:56:12.308Z,96869.44
2022-11-25T06:57:17.480Z,96859.38
2022-11-25T06:58:34.803Z,96870.22
2022-11-25T06:59:37.866Z,96867.53
2022-11-25T07:00:39.409Z,96870.66
2022-11-25T07:01:41.051Z,96876.66
2022-11-25T07:02:48.024Z,96876.31
2022-11-25T07:03:52.878Z,96879.47
2022-11-25T07:04:54.488Z,96874.75
2022-11-25T07:05:57.953Z,96878.97
2022-11-25T07:06:59.502Z,96884.78
2022-11-25T07:08:01.056Z,96873.63
2022-11-25T07:09:03.654Z,96881.31
2022-11-25T07:10:05.946Z,96880.34
2022-11-25T07:11:20.338Z,96882.38
2022-11-25T07:12:21.929Z,96879.47
2022-11-25T07:13:23.438Z,96882.47
2022-11-25T07:14:24.981Z,96878.16
2022-11-25T07:15:26.524Z,96882.38
2022-11-25T07:16:29.343Z,96881.22
2022-11-25T07:17:30.909Z,96877.38
2022-11-25T07:18:35.131Z,96880.81
2022-11-25T07:19:36.724Z,96886.63
2022-11-25T07:20:39.063Z,96879.34
2022-11-25T07:21:40.772Z,96885.44
2022-11-25T07:22:42.274Z,96885.59
2022-11-25T07:23:45.908Z,96884.44
2022-11-25T07:24:47.464Z,96890.81
2022-11-25T07:25:49.047Z,96881.97
2022-11-25T07:26:50.585Z,96885.22
2022-11-25T07:27:52.228Z,96889.81
2022-11-25T07:28:55.621Z,96885.56
2022-11-25T07:30:54.340Z,96890.44
2022-11-25T07:31:24.477Z,96894.06
2022-11-25T07:32:28.652Z,96897.66
2022-11-25T07:33:30.247Z,96887.25
2022-11-25T07:34:31.934Z,96896.72
2022-11-25T07:35:34.085Z,96891.63
2022-11-25T07:36:36.246Z,96901.81
2022-11-25T07:37:37.813Z,96889.84
2022-11-25T07:38:45.146Z,96885.16
2022-11-25T07:39:48.210Z,96895.78
2022-11-25T07:40:50.708Z,96898.03
2022-11-25T07:41:53.978Z,96898.94
2022-11-25T07:42:55.549Z,96894.38
2022-11-25T07:44:01.164Z,96902.09
2022-11-25T07:45:02.720Z,96899.59
2022-11-25T07:46:27.080Z,96908.28
2022-11-25T07:47:29.138Z,96898.56
2022-11-25T07:48:31.825Z,96893.47
2022-11-25T07:49:33.427Z,96899.75
2022-11-25T07:50:34.969Z,96904.25
2022-11-25T07:51:39.531Z,96905.09
2022-11-25T07:52:41.151Z,96905.03
2022-11-25T07:53:42.786Z,96905.03
2022-11-25T07:54:44.327Z,96897.88
2022-11-25T07:55:45.880Z,96900.75
2022-11-25T07:56:48.736Z,96902.47
2022-11-25T07:57:50.387Z,96888.84
2022-11-25T07:58:52.249Z,96896.44
2022-11-25T07:59:53.786Z,96901.69
2022-11-25T08:00:55.429Z,96899.56
2022-11-25T08:01:57.041Z,96893.03
2022-11-25T08:02:58.688Z,96897.72
2022-11-25T08:04:00.291Z,96903.75
2022-11-25T08:05:01.855Z,96901.78
2022-11-25T08:06:05.530Z,96900.88
2022-11-25T08:07:07.155Z,96893.31
2022-11-25T08:08:08.753Z,96893.09
2022-11-25T08:09:12.091Z,96888.19
2022-11-25T08:10:13.649Z,96880.91
2022-11-25T08:11:18.557Z,96885.91
2022-11-25T08:12:20.215Z,96889.22
2022-11-25T08:13:21.967Z,96879.84
2022-11-25T08:14:23.597Z,96899.47
2022-11-25T08:15:25.135Z,96892.00
2022-11-25T08:16:28.866Z,96899.50
2022-11-25T08:17:30.485Z,96883.84
2022-11-25T08:18:32.202Z,96904.69
2022-11-25T08:19:33.868Z,96895.66
2022-11-25T08:20:35.486Z,96901.94
2022-11-25T08:21:37.566Z,96905.06
2022-11-25T08:22:39.145Z,96908.56
2022-11-25T08:23:48.718Z,96899.09
2022-11-25T08:24:50.370Z,96904.25
2022-11-25T08:25:52.025Z,96904.81
2022-11-25T08:26:54.985Z,96904.47
2022-11-25T08:27:56.582Z,96892.56
2022-11-25T08:28:59.024Z,96898.88
2022-11-25T08:30:00.637Z,96895.56
2022-11-25T08:31:11.495Z,96900.66
2022-11-25T08:32:13.183Z,96895.19
2022-11-25T08:33:14.822Z,96892.41
2022-11-25T08:34:23.924Z,96896.63
2022-11-25T08:35:25.552Z,96903.91
2022-11-25T08:36:28.610Z,96893.09
2022-11-25T08:37:31.154Z,96891.50
2022-11-25T08:38:34.175Z,96883.69
2022-11-25T08:39:51.790Z,96892.34
2022-11-25T08:40:54.428Z,96907.78
2022-11-25T08:41:56.003Z,96890.16
2022-11-25T08:42:57.562Z,96899.88
2022-11-25T08:44:01.764Z,96899.66
2022-11-25T08:45:05.708Z,96898.34
2022-11-25T08:46:09.365Z,96910.63
2022-11-25T08:47:10.934Z,96907.88
2022-11-25T08:48:12.446Z,96905.50
2022-11-25T08:49:16.805Z,96903.81
2022-11-25T08:50:19.019Z,96901.03
2022-11-25T08:51:24.392Z,96914.56
2022-11-25T08:52:28.727Z,96909.66
2022-11-25T08:53:30.278Z,96905.84
2022-11-25T08:54:31.846Z,96915.03
2022-11-25T08:55:33.457Z,96912.78
2022-11-25T08:56:35.662Z,96913.47
2022-11-25T08:57:37.289Z,96914.16
2022-11-25T08:58:39.143Z,96905.66
2022-11-25T08:59:41.723Z,96921.09
2022-11-25T09:00:45.014Z,96918.28
2022-11-25T09:01:46.783Z,96905.66
2022-11-25T09:02:49.073Z,96921.53
2022-11-25T09:03:53.196Z,96906.56
2022-11-25T09:04:54.738Z,96913.59
2022-11-25T09:05:56.311Z,96913.06
2022-11-25T09:06:57.840Z,96909.47
2022-11-25T09:07:59.469Z,96902.31
2022-11-25T09:09:01.862Z,96908.56
2022-11-25T09:10:04.252Z,96903.66
2022-11-25T09:11:06.898Z,96911.25
2022-11-25T09:12:08.593Z,96900.50
2022-11-25T09:13:11.623Z,96900.97
2022-11-25T09:14:13.765Z,96902.88
2022-11-25T09:15:15.495Z,96914.84
2022-11-25T09:16:17.173Z,96900.19
2022-11-25T09:17:18.776Z,96913.47
2022-11-25T09:18:20.662Z,96904.75
2022-11-25T09:19:22.195Z,96915.06
2022-11-25T09:20:23.757Z,96911.94
2022-11-25T09:21:25.661Z,96911.16
2022-11-25T09:22:27.276Z,96910.13
2022-11-25T09:23:28.991Z,96911.94
2022-11-25T09:24:30.602Z,96907.34
2022-11-25T09:25:32.161Z,96907.03
2022-11-25T09:26:39.633Z,96902.75
2022-11-25T09:27:41.229Z,96918.63
2022-11-25T09:28:42.748Z,96903.78
2022-11-25T09:29:44.277Z,96909.03
2022-11-25T09:30:45.799Z,96918.84
2022-11-25T09:31:51.454Z,96919.06
2022-11-25T09:32:56.426Z,96920.19
2022-11-25T09:33:58.350Z,96903.97
2022-11-25T09:34:59.938Z,96911.72
2022-11-25T09:36:02.859Z,96917.09
2022-11-25T09:37:04.415Z,96890.88
2022-11-25T09:38:06.188Z,96906.00
2022-11-25T09:39:07.719Z,96901.84
2022-11-25T09:40:19.586Z,96918.97
2022-11-25T09:42:18.129Z,96918.09
2022-11-25T09:44:00.916Z,96905.88
2022-11-25T09:45:46.278Z,96914.81
2022-11-25T09:47:14.468Z,96913.50
2022-11-25T09:48:34.196Z,96923.38
2022-11-25T09:49:50.907Z,96905.91
2022-11-25T09:51:12.203Z,96901.41
2022-11-25T09:52:28.362Z,96909.25
2022-11-25T09:53:40.591Z,96896.94
2022-11-25T09:54:53.717Z,96901.19
2022-11-25T09:56:02.013Z,96906.53
2022-11-25T09:57:12.883Z,96910.59
2022-11-25T09:58:33.191Z,96888.88
2022-11-25T10:00:06.148Z,96905.66
2022-11-25T10:01:16.200Z,96903.41
2022-11-25T10:02:28.761Z,96906.56
2022-11-25T10:03:42.643Z,96905.66
2022-11-25T10:04:49.387Z,96862.47
2022-11-25T10:06:09.843Z,96908.13
2022-11-25T10:07:22.014Z,96915.53
2022-11-25T10:08:34.069Z,96910.47
2022-11-25T10:09:36.127Z,96914.28
2022-11-25T10:10:47.970Z,96912.03
2022-11-25T10:11:56.152Z,96918.78
2022-11-25T10:12:59.195Z,96906.78
2022-11-25T10:14:16.924Z,96914.94
2022-11-25T10:15:27.641Z,96910.59
2022-11-25T10:16:38.502Z,96907.88
2022-11-25T10:17:51.116Z,96919.31
2022-11-25T10:19:13.806Z,96914.84
2022-11-25T10:20:20.876Z,96905.22
2022-11-25T10:21:22.529Z,96897.81
2022-11-25T10:22:33.771Z,96904.56
2022-11-25T10:23:36.616Z,96898.84
2022-11-25T10:24:41.178Z,96913.41
2022-11-25T10:25:46.906Z,96907.34
2022-11-25T10:27:00.217Z,96895.13
2022-11-25T10:28:03.994Z,96896.84
2022-11-25T10:29:14.549Z,96892.56
2022-11-25T10:30:46.561Z,96903.19
2022-11-25T10:31:50.474Z,96895.94
2022-11-25T10:33:21.189Z,96894.03
2022-11-25T10:34:47.000Z,96893.81
2022-11-25T10:36:03.979Z,96895.81
2022-11-25T10:37:19.300Z,96898.38
2022-11-25T10:38:39.470Z,96896.72
2022-11-25T10:39:41.066Z,96885.31
2022-11-25T10:40:49.639Z,96906.78
2022-11-25T10:42:08.359Z,96904.53
2022-11-25T10:43:13.941Z,96907.91
2022-11-25T10:44:30.523Z,96907.66
2022-11-25T10:45:40.900Z,96898.03
2022-11-25T10:47:14.851Z,96905.44
2022-11-25T10:48:25.548Z,96893.13
2022-11-25T10:49:39.138Z,96904.28
2022-11-25T10:51:16.755Z,96892.44
2022-11-25T10:52:23.365Z,96917.53
2022-11-25T10:53:27.083Z,96911.16
2022-11-25T10:54:29.211Z,96918.78
2022-11-25T10:55:33.855Z,96905.88
2022-11-25T10:56:57.563Z,96924.91
2022-11-25T10:58:00.242Z,96907.88
2022-11-25T10:59:13.861Z,96918.78
2022-11-25T11:00:26.572Z,96906.34
2022-11-25T11:01:28.197Z,96928.47
2022-11-25T11:02:35.501Z,96927.28
2022-11-25T11:03:37.537Z,96919.78
2022-11-25T11:04:57.877Z,96920.34
2022-11-25T11:05:59.482Z,96919.41
2022-11-25T11:07:08.969Z,96921.88
2022-11-25T11:08:13.341Z,96918.63
2022-11-25T11:09:34.677Z,96926.25
2022-11-25T11:10:36.757Z,96911.81
2022-11-25T11:11:48.619Z,96930.03
2022-11-25T11:13:02.199Z,96929.59
2022-11-25T11:14:20.548Z,96944.69
2022-11-25T11:15:23.625Z,96947.81
2022-11-25T11:16:36.445Z,96937.31
2022-11-25T11:17:38.138Z,96944.44
2022-11-25T11:18:41.353Z,96943.69
2022-11-25T11:19:42.955Z,96935.16
2022-11-25T11:20:50.390Z,96942.53
2022-11-25T11:21:52.675Z,96930.88
2022-11-25T11:23:14.280Z,96941.25
2022-11-25T11:24:29.633Z,96943.16
2022-11-25T11:25:34.727Z,96957.88
2022-11-25T11:26:36.726Z,96947.81
2022-11-25T11:27:38.776Z,96946.25
2022-11-25T11:28:41.952Z,96954.75
2022-11-25T11:29:43.502Z,96949.38
2022-11-25T11:30:57.246Z,96952.72
2022-11-25T11:32:04.529Z,96952.94
2022-11-25T11:33:32.936Z,96945.53
2022-11-25T11:34:55.333Z,96955.56
2022-11-25T11:36:21.208Z,96950.19
2022-11-25T11:37:30.015Z,96957.59
2022-11-25T11:39:11.190Z,96960.50
2022-11-25T11:40:29.896Z,96958.72
2022-11-25T11:41:47.382Z,96951.16
2022-11-25T11:43:03.620Z,96955.16
2022-11-25T11:44:11.891Z,96955.63
2022-11-25T11:45:25.549Z,96938.63
2022-11-25T11:46:36.962Z,96967.19
2022-11-25T11:48:04.492Z,96960.28
2022-11-25T11:49:44.979Z,96959.81
2022-11-25T11:51:12.643Z,96965.63
2022-11-25T11:53:02.761Z,96954.91
2022-11-25T11:54:12.280Z,96974.44
2022-11-25T11:55:25.639Z,96962.75
2022-11-25T11:56:42.670Z,96967.44
2022-11-25T11:58:02.988Z,96968.16
2022-11-25T11:59:16.643Z,96961.69
2022-11-25T12:00:20.271Z,96964.03
2022-11-25T12:01:49.600Z,96964.69
2022-11-25T12:02:57.131Z,96980.34
2022-11-25T12:04:14.972Z,96969.13
2022-11-25T12:05:26.669Z,96978.84
2022-11-25T12:06:31.946Z,96971.91
2022-11-25T12:08:00.780Z,96964.84
2022-11-25T12:09:15.814Z,96971.00
2022-11-25T12:10:25.772Z,96962.50
2022-11-25T12:11:35.180Z,96979.25
2022-11-25T12:12:41.948Z,96989.97
2022-11-25T12:14:03.032Z,96971.41
2022-11-25T12:15:16.479Z,96979.25
2022-11-25T12:16:26.212Z,96976.50
2022-11-25T12:17:34.507Z,96977.28
2022-11-25T12:18:49.273Z,96975.69
2022-11-25T12:20:01.615Z,96979.75
2022-11-25T12:21:06.849Z,96965.56
2022-11-25T12:22:22.423Z,96974.50
2022-11-25T12:23:57.973Z,96980.75
2022-11-25T12:25:19.238Z,96966.94
2022-11-25T12:26:48.051Z,96967.59
2022-11-25T12:28:06.601Z,96975.97
2022-11-25T12:29:28.237Z,96976.22
2022-11-25T12:31:14.688Z,96974.78
2022-11-25T12:32:38.009Z,96964.50
2022-11-25T12:33:53.323Z,96976.56
2022-11-25T12:35:10.582Z,96978.47
2022-11-25T12:36:21.363Z,96979.25
2022-11-25T12:37:38.343Z,96982.38
2022-11-25T12:38:56.184Z,96986.16
2022-11-25T12:40:18.634Z,96985.38
2022-11-25T12:41:37.651Z,96977.22
2022-11-25T12:42:41.679Z,96980.34
2022-11-25T12:43:49.091Z,96980.56
2022-11-25T12:45:00.775Z,96978.06
2022-11-25T12:46:24.878Z,96975.59
2022-11-25T12:47:27.045Z,96976.88
2022-11-25T12:48:28.718Z,96977.00
2022-11-25T12:49:43.328Z,96979.25
2022-11-25T12:51:16.703Z,96980.03
2022-11-25T12:52:46.603Z,96995.34
2022-11-25T12:54:11.435Z,96985.13